Maples, Missouri
Current Conditions -  °F | °C
As of 8:58 AM on Thursday 23 Oct 2014 (Local Time) from KTBN Reporting Station
Overcast Overcast  
Wind Chill: 46°   Ceiling: 4400
Heat Index: 48°   Visibility: 10mi
Dew Point: 45°   Wind: 5mph
Humidity: 90%   Direction: 140°SE
Pressure: 30.2"   Gusts: NA
Location:  37.5023°N, 91.4546°W
Report Text: KTBN 231358Z AUTO 14004KT 10SM OVC044 09/07 A3020 RMK AO2 SLP231 T00870072
Loading
Personal Weather Stations






























Interactive Weather Map
Tropical Storm Tracking
New forecast layout! Learn more

10-Day Weather Forecast

Advertisements
Track Severe Weather on mobile